createdAt,value
2019-03-03T00:00:21.260Z,9.30
2019-03-03T00:02:49.695Z,9.30
2019-03-03T00:05:18.106Z,9.40
2019-03-03T00:07:46.551Z,9.40
2019-03-03T00:10:15.111Z,9.40
2019-03-03T00:12:43.686Z,9.40
2019-03-03T00:15:12.563Z,9.40
2019-03-03T00:17:41.003Z,9.50
2019-03-03T00:20:11.785Z,9.50
2019-03-03T00:22:40.213Z,9.50
2019-03-03T00:25:10.099Z,9.50
2019-03-03T00:27:38.534Z,9.50
2019-03-03T00:30:21.233Z,9.50
2019-03-03T00:32:49.711Z,9.50
2019-03-03T00:35:18.190Z,9.50
2019-03-03T00:37:50.702Z,9.50
2019-03-03T00:40:36.934Z,9.50
2019-03-03T00:43:16.070Z,9.50
2019-03-03T00:45:57.967Z,9.50
2019-03-03T00:48:40.315Z,9.50
2019-03-03T00:51:22.118Z,9.50
2019-03-03T00:54:01.006Z,9.50
2019-03-03T00:56:33.770Z,9.50
2019-03-03T00:59:06.600Z,9.40
2019-03-03T01:01:36.776Z,9.40
2019-03-03T01:04:09.585Z,9.50
2019-03-03T01:06:42.541Z,9.50
2019-03-03T01:09:23.603Z,9.50
2019-03-03T01:11:54.042Z,9.40
2019-03-03T01:14:40.415Z,9.30
2019-03-03T01:17:13.366Z,9.30
2019-03-03T01:19:59.676Z,9.30
2019-03-03T01:22:29.735Z,9.30
2019-03-03T01:24:58.173Z,9.30
2019-03-03T01:27:26.744Z,9.30
2019-03-03T01:29:55.158Z,9.30
2019-03-03T01:32:23.592Z,9.30
2019-03-03T01:34:52.003Z,9.30
2019-03-03T01:37:20.467Z,9.30
2019-03-03T01:42:23.195Z,9.30
2019-03-03T01:44:51.617Z,9.30
2019-03-03T01:47:20.035Z,9.30
2019-03-03T01:49:48.525Z,9.30
2019-03-03T01:52:16.942Z,9.30
2019-03-03T01:54:45.386Z,9.30
2019-03-03T01:57:13.824Z,9.30
2019-03-03T01:59:42.236Z,9.30
2019-03-03T02:02:10.733Z,9.30
2019-03-03T02:04:39.143Z,9.20
2019-03-03T02:07:07.750Z,9.30
2019-03-03T02:09:36.265Z,9.30
2019-03-03T02:12:04.875Z,9.30
2019-03-03T02:14:33.353Z,9.30
2019-03-03T02:17:01.802Z,9.30
2019-03-03T02:19:30.231Z,9.30
2019-03-03T02:21:58.722Z,9.30
2019-03-03T02:24:27.151Z,9.30
2019-03-03T02:26:55.731Z,9.40
2019-03-03T02:29:24.170Z,9.30
2019-03-03T02:31:52.651Z,9.30
2019-03-03T02:34:21.088Z,9.30
2019-03-03T02:36:50.160Z,9.30
2019-03-03T02:39:18.585Z,9.30
2019-03-03T02:41:47.240Z,9.30
2019-03-03T02:44:15.732Z,9.30
2019-03-03T02:46:44.166Z,9.30
2019-03-03T02:49:12.580Z,9.40
2019-03-03T02:51:40.994Z,9.30
2019-03-03T02:54:09.433Z,9.40
2019-03-03T02:56:37.923Z,9.40
2019-03-03T02:59:06.347Z,9.40
2019-03-03T03:01:39.201Z,9.40
2019-03-03T03:04:07.700Z,9.30
2019-03-03T03:06:40.611Z,9.40
2019-03-03T03:09:10.764Z,9.30
2019-03-03T03:11:40.807Z,9.30
2019-03-03T03:14:13.584Z,9.30
2019-03-03T03:16:43.636Z,9.30
2019-03-03T03:19:16.550Z,9.30
2019-03-03T03:21:46.617Z,9.30
2019-03-03T03:24:19.136Z,9.30
2019-03-03T03:26:58.459Z,9.30
2019-03-03T03:29:28.506Z,9.30
2019-03-03T03:32:01.521Z,9.40
2019-03-03T03:34:43.412Z,9.40
2019-03-03T03:37:13.460Z,9.30
2019-03-03T03:39:43.531Z,9.30
2019-03-03T03:42:13.599Z,9.30
2019-03-03T03:44:59.014Z,9.30
2019-03-03T03:47:41.133Z,9.30
2019-03-03T03:50:11.209Z,9.30
2019-03-03T03:52:41.254Z,9.40
2019-03-03T03:55:20.263Z,9.30
2019-03-03T03:57:53.181Z,9.30
2019-03-03T04:00:23.297Z,9.30
2019-03-03T04:03:02.401Z,9.40
2019-03-03T04:05:32.553Z,9.30
2019-03-03T04:08:20.630Z,9.30
2019-03-03T04:11:07.264Z,9.30
2019-03-03T04:13:53.734Z,9.40
2019-03-03T04:16:33.118Z,9.30
2019-03-03T04:19:03.167Z,9.30
2019-03-03T04:21:33.338Z,9.30
2019-03-03T04:24:06.487Z,9.30
2019-03-03T04:26:39.366Z,9.20
2019-03-03T04:29:09.469Z,9.30
2019-03-03T04:31:45.502Z,9.30
2019-03-03T04:34:18.114Z,9.30
2019-03-03T04:37:00.550Z,9.30
2019-03-03T04:39:30.635Z,9.30
2019-03-03T04:42:00.686Z,9.30
2019-03-03T04:44:39.322Z,9.20
2019-03-03T04:47:24.742Z,9.10
2019-03-03T04:49:54.824Z,9.10
2019-03-03T04:52:30.647Z,9.10
2019-03-03T04:55:12.571Z,9.10
2019-03-03T04:57:45.350Z,9.00
2019-03-03T05:00:31.891Z,9.10
2019-03-03T05:03:18.469Z,9.10
2019-03-03T05:06:03.941Z,9.10
2019-03-03T05:08:52.199Z,9.10
2019-03-03T05:12:08.054Z,9.20
2019-03-03T05:14:45.626Z,9.20
2019-03-03T05:17:18.451Z,9.20
2019-03-03T05:19:48.527Z,9.20
2019-03-03T05:22:16.944Z,9.20
2019-03-03T05:24:45.375Z,9.30
2019-03-03T05:27:13.790Z,9.30
2019-03-03T05:29:42.222Z,9.40
2019-03-03T05:32:10.666Z,9.40
2019-03-03T05:34:39.082Z,9.40
2019-03-03T05:37:07.526Z,9.40
2019-03-03T05:39:35.950Z,9.40
2019-03-03T05:42:04.521Z,9.50
2019-03-03T05:44:32.943Z,9.50
2019-03-03T05:47:01.378Z,9.40
2019-03-03T05:49:29.875Z,9.50
2019-03-03T05:51:58.287Z,9.40
2019-03-03T05:54:26.722Z,9.40
2019-03-03T05:56:55.137Z,9.40
2019-03-03T05:59:23.568Z,9.50
2019-03-03T06:01:51.974Z,9.40
2019-03-03T06:04:20.418Z,9.40
2019-03-03T06:06:48.841Z,9.30
2019-03-03T06:09:17.248Z,9.30
2019-03-03T06:11:45.682Z,9.30
2019-03-03T06:14:14.106Z,9.30
2019-03-03T06:16:42.570Z,9.30
2019-03-03T06:19:11.000Z,9.30
2019-03-03T06:21:39.622Z,9.30
2019-03-03T06:24:08.081Z,9.30
2019-03-03T06:26:36.486Z,9.30
2019-03-03T06:29:04.995Z,9.30
2019-03-03T06:31:33.479Z,9.30
2019-03-03T06:34:01.887Z,9.30
2019-03-03T06:36:30.322Z,9.30
2019-03-03T06:38:58.735Z,9.40
2019-03-03T06:41:27.162Z,9.50
2019-03-03T06:43:55.586Z,9.50
2019-03-03T06:46:24.023Z,9.50
2019-03-03T06:48:52.458Z,9.50
2019-03-03T06:51:20.943Z,9.50
2019-03-03T06:53:49.371Z,9.40
2019-03-03T06:56:17.871Z,9.50
2019-03-03T06:58:46.280Z,9.50
2019-03-03T07:01:14.691Z,9.50
2019-03-03T07:03:43.179Z,9.50
2019-03-03T07:06:11.603Z,9.60
2019-03-03T07:08:40.136Z,9.60
2019-03-03T07:11:10.048Z,9.70
2019-03-03T07:13:38.771Z,9.80
2019-03-03T07:16:07.192Z,9.80
2019-03-03T07:18:35.627Z,9.80
2019-03-03T07:21:04.132Z,9.90
2019-03-03T07:23:32.550Z,9.90
2019-03-03T07:26:00.987Z,9.90
2019-03-03T07:28:29.407Z,10.00
2019-03-03T07:30:57.851Z,10.00
2019-03-03T07:33:27.903Z,10.00
2019-03-03T07:35:56.377Z,10.00
2019-03-03T07:38:24.795Z,10.10
2019-03-03T07:40:53.226Z,10.10
2019-03-03T07:43:21.662Z,10.00
2019-03-03T07:45:50.183Z,10.00
2019-03-03T07:48:18.627Z,10.00
2019-03-03T07:50:47.048Z,10.00
2019-03-03T07:53:15.477Z,10.00
2019-03-03T07:55:43.909Z,10.00
2019-03-03T07:58:12.347Z,10.00
2019-03-03T08:00:40.863Z,10.00
2019-03-03T08:03:09.312Z,10.10
2019-03-03T08:05:37.744Z,10.10
2019-03-03T08:08:06.199Z,10.00
2019-03-03T08:10:34.698Z,10.00
2019-03-03T08:13:09.191Z,10.00
2019-03-03T08:15:33.317Z,10.00
2019-03-03T08:18:01.718Z,10.00
2019-03-03T08:20:30.139Z,9.90
2019-03-03T08:22:58.636Z,9.90
2019-03-03T08:25:27.060Z,9.90
2019-03-03T08:27:55.502Z,10.00
2019-03-03T08:30:23.918Z,10.00
2019-03-03T08:32:52.340Z,9.90
2019-03-03T08:35:25.809Z,9.90
2019-03-03T08:37:54.239Z,9.90
2019-03-03T08:40:22.649Z,9.90
2019-03-03T08:43:07.816Z,9.90
2019-03-03T08:45:53.771Z,9.90
2019-03-03T08:48:35.726Z,9.90
2019-03-03T08:51:11.511Z,9.90
2019-03-03T08:53:47.063Z,9.90
2019-03-03T08:56:33.524Z,9.90
2019-03-03T08:59:06.627Z,9.90
2019-03-03T09:01:36.678Z,9.90
2019-03-03T09:04:06.763Z,9.90
2019-03-03T09:06:36.834Z,10.00
2019-03-03T09:09:14.894Z,10.00
2019-03-03T09:11:45.044Z,10.10
2019-03-03T09:14:18.127Z,10.10
2019-03-03T09:16:54.225Z,10.20
2019-03-03T09:19:36.419Z,10.20
2019-03-03T09:22:06.740Z,10.20
2019-03-03T09:24:36.834Z,10.30
2019-03-03T09:27:19.443Z,10.40
2019-03-03T09:29:52.504Z,10.40
2019-03-03T09:32:25.451Z,10.50
2019-03-03T09:35:01.199Z,10.50
2019-03-03T09:37:31.259Z,10.50
2019-03-03T09:40:16.715Z,10.50
2019-03-03T09:42:58.726Z,10.50
2019-03-03T09:45:31.726Z,10.50
2019-03-03T09:48:04.782Z,10.60
2019-03-03T09:50:34.918Z,10.50
2019-03-03T09:53:05.010Z,10.50
2019-03-03T09:55:35.094Z,10.60
2019-03-03T09:58:11.163Z,10.60
2019-03-03T10:00:49.909Z,10.70
2019-03-03T10:03:23.037Z,10.70
2019-03-03T10:05:53.196Z,10.60
2019-03-03T10:08:41.464Z,10.50
2019-03-03T10:11:28.180Z,10.50
2019-03-03T10:13:58.302Z,10.50
2019-03-03T10:16:30.838Z,10.50
2019-03-03T10:19:19.023Z,10.50
2019-03-03T10:22:01.160Z,10.50
2019-03-03T10:24:40.024Z,10.50
2019-03-03T10:27:15.955Z,10.40
2019-03-03T10:30:02.147Z,10.40
2019-03-03T10:32:41.342Z,10.40
2019-03-03T10:35:33.799Z,10.40
2019-03-03T10:38:09.696Z,10.40
2019-03-03T10:40:48.876Z,10.40
2019-03-03T10:43:21.989Z,10.50
2019-03-03T10:46:01.186Z,10.50
2019-03-03T10:48:31.277Z,10.60
2019-03-03T10:51:01.490Z,10.70
2019-03-03T10:53:34.530Z,10.70
2019-03-03T10:56:22.971Z,10.80
2019-03-03T10:58:55.790Z,10.80
2019-03-03T11:01:32.134Z,10.80
2019-03-03T11:04:11.500Z,10.70
2019-03-03T11:06:57.598Z,10.80
2019-03-03T11:09:27.684Z,10.80
2019-03-03T11:11:57.784Z,10.80
2019-03-03T11:14:31.088Z,10.80
2019-03-03T11:17:16.826Z,10.70
2019-03-03T11:20:05.142Z,10.70
2019-03-03T11:22:38.283Z,10.70
2019-03-03T11:25:13.332Z,10.70
2019-03-03T11:27:49.190Z,10.70
2019-03-03T11:30:22.788Z,10.70
2019-03-03T11:33:01.963Z,10.60
2019-03-03T11:35:38.048Z,10.50
2019-03-03T11:38:11.590Z,10.50
2019-03-03T11:40:50.734Z,10.50
2019-03-03T11:43:23.996Z,10.40
2019-03-03T11:46:10.023Z,10.50
2019-03-03T11:48:56.648Z,10.40
2019-03-03T11:51:43.105Z,10.40
2019-03-03T11:54:22.382Z,10.40
2019-03-03T11:56:55.679Z,10.50
2019-03-03T11:59:28.536Z,10.50
2019-03-03T12:02:07.772Z,10.50
2019-03-03T12:04:43.715Z,10.50
2019-03-03T12:07:16.663Z,10.50
2019-03-03T12:09:49.295Z,10.40
2019-03-03T12:12:24.846Z,10.40
2019-03-03T12:15:06.746Z,10.50
2019-03-03T12:17:46.116Z,10.50
2019-03-03T12:20:16.733Z,10.50
2019-03-03T12:22:46.805Z,10.50
2019-03-03T12:25:33.218Z,10.50
2019-03-03T12:28:03.287Z,10.40
2019-03-03T12:30:49.687Z,10.40
2019-03-03T12:33:28.694Z,10.50
2019-03-03T12:36:05.042Z,10.60
2019-03-03T12:38:44.479Z,10.60
2019-03-03T12:41:32.970Z,10.60
2019-03-03T12:44:03.023Z,10.70
2019-03-03T12:46:33.116Z,10.70
2019-03-03T12:49:03.227Z,10.70
2019-03-03T12:51:45.023Z,10.60
2019-03-03T12:54:15.119Z,10.60
2019-03-03T12:56:45.184Z,10.60
2019-03-03T12:59:15.268Z,10.70
2019-03-03T13:01:48.423Z,10.70
2019-03-03T13:04:18.483Z,10.80
2019-03-03T13:06:48.563Z,10.80
2019-03-03T13:09:27.761Z,10.80
2019-03-03T13:12:03.798Z,10.90
2019-03-03T13:14:48.991Z,10.90
2019-03-03T13:17:21.904Z,11.00
2019-03-03T13:19:51.955Z,11.00
2019-03-03T13:22:36.719Z,11.00
2019-03-03T13:25:25.359Z,11.10
2019-03-03T13:27:55.451Z,11.20
2019-03-03T13:30:28.625Z,11.30
2019-03-03T13:32:58.771Z,11.30
2019-03-03T13:35:31.552Z,11.40
2019-03-03T13:38:04.578Z,11.40
2019-03-03T13:40:43.794Z,11.30
2019-03-03T13:43:12.296Z,11.20
2019-03-03T13:45:40.927Z,11.20
2019-03-03T13:48:09.602Z,11.10
2019-03-03T13:50:38.118Z,11.10
2019-03-03T13:53:06.606Z,11.10
2019-03-03T13:55:35.111Z,11.20
2019-03-03T13:58:03.551Z,11.20
2019-03-03T14:00:32.151Z,11.20
2019-03-03T14:03:00.723Z,11.10
2019-03-03T14:05:29.234Z,11.10
2019-03-03T14:07:57.742Z,11.00
2019-03-03T14:10:26.226Z,10.90
2019-03-03T14:12:54.692Z,10.90
2019-03-03T14:15:23.177Z,10.80
2019-03-03T14:17:51.705Z,10.80
2019-03-03T14:20:22.204Z,10.70
2019-03-03T14:22:51.567Z,10.70
2019-03-03T14:25:20.363Z,10.70
2019-03-03T14:27:48.798Z,10.70
2019-03-03T14:30:19.864Z,10.70
2019-03-03T14:32:48.355Z,10.80
2019-03-03T14:35:17.473Z,10.80
2019-03-03T14:37:45.981Z,10.80
2019-03-03T14:40:19.613Z,10.80
2019-03-03T14:42:48.350Z,10.90
2019-03-03T14:45:18.621Z,10.90
2019-03-03T14:47:47.309Z,10.80
2019-03-03T14:50:20.265Z,10.90
2019-03-03T14:52:53.322Z,10.80
2019-03-03T14:55:21.795Z,10.80
2019-03-03T14:57:50.317Z,10.80
2019-03-03T15:00:28.601Z,10.80
2019-03-03T15:02:58.086Z,10.70
2019-03-03T15:05:26.640Z,10.80
2019-03-03T15:07:55.133Z,10.80
2019-03-03T15:10:23.711Z,10.80
2019-03-03T15:12:52.221Z,10.80
2019-03-03T15:15:22.869Z,10.80
2019-03-03T15:17:51.441Z,10.90
2019-03-03T15:20:20.039Z,10.90
2019-03-03T15:22:48.560Z,10.90
2019-03-03T15:25:17.151Z,10.90
2019-03-03T15:27:45.831Z,10.90
2019-03-03T15:30:21.942Z,10.90
2019-03-03T15:32:50.498Z,10.90
2019-03-03T15:35:19.185Z,10.90
2019-03-03T15:37:48.338Z,10.90
2019-03-03T15:40:25.198Z,10.90
2019-03-03T15:42:53.787Z,10.90
2019-03-03T15:45:23.880Z,10.90
2019-03-03T15:47:52.308Z,10.90
2019-03-03T15:50:21.967Z,10.90
2019-03-03T15:52:50.464Z,10.90
2019-03-03T15:55:23.933Z,10.80
2019-03-03T15:57:52.591Z,10.90
2019-03-03T16:00:32.593Z,10.80
2019-03-03T16:03:01.027Z,10.80
2019-03-03T16:05:29.520Z,10.80
2019-03-03T16:07:58.215Z,10.80
2019-03-03T16:10:27.621Z,10.80
2019-03-03T16:12:56.179Z,10.70
2019-03-03T16:15:24.842Z,10.70
2019-03-03T16:17:53.299Z,10.70
2019-03-03T16:20:23.962Z,10.70
2019-03-03T16:22:52.566Z,10.70
2019-03-03T16:25:25.217Z,10.70
2019-03-03T16:27:53.681Z,10.60
2019-03-03T16:30:23.377Z,10.60
2019-03-03T16:32:51.869Z,10.60
2019-03-03T16:35:20.367Z,10.60
2019-03-03T16:37:48.862Z,10.60
2019-03-03T16:40:25.230Z,10.60
2019-03-03T16:42:53.827Z,10.60
2019-03-03T16:45:22.562Z,10.60
2019-03-03T16:47:51.301Z,10.60
2019-03-03T16:50:26.087Z,10.60
2019-03-03T16:52:54.520Z,10.60
2019-03-03T16:55:22.934Z,10.60
2019-03-03T16:57:51.439Z,10.50
2019-03-03T17:00:27.107Z,10.50
2019-03-03T17:02:55.549Z,10.60
2019-03-03T17:05:30.470Z,10.60
2019-03-03T17:07:58.906Z,10.60
2019-03-03T17:10:27.367Z,10.60
2019-03-03T17:12:55.839Z,10.50
2019-03-03T17:15:25.922Z,10.50
2019-03-03T17:17:54.335Z,10.60
2019-03-03T17:20:22.827Z,10.60
2019-03-03T17:22:51.828Z,10.60
2019-03-03T17:25:29.419Z,10.70
2019-03-03T17:27:57.886Z,10.70
2019-03-03T17:30:27.289Z,10.70
2019-03-03T17:32:55.782Z,10.70
2019-03-03T17:35:24.306Z,10.70
2019-03-03T17:37:52.883Z,10.70
2019-03-03T17:40:22.858Z,10.70
2019-03-03T17:42:51.454Z,10.80
2019-03-03T17:45:26.046Z,10.80
2019-03-03T17:47:54.539Z,10.80
2019-03-03T17:50:29.965Z,10.90
2019-03-03T17:52:58.498Z,11.00
2019-03-03T17:55:26.966Z,10.90
2019-03-03T17:57:55.474Z,10.90
2019-03-03T18:00:29.890Z,10.90
2019-03-03T18:02:58.397Z,11.00
2019-03-03T18:05:26.928Z,11.00
2019-03-03T18:07:55.600Z,11.00
2019-03-03T18:10:24.191Z,11.00
2019-03-03T18:12:52.656Z,11.10
2019-03-03T18:15:21.103Z,11.10
2019-03-03T18:17:50.604Z,11.00
2019-03-03T18:20:22.892Z,11.00
2019-03-03T18:22:51.375Z,11.10
2019-03-03T18:25:21.739Z,11.10
2019-03-03T18:27:50.699Z,11.20
2019-03-03T18:30:21.391Z,11.20
2019-03-03T18:32:49.995Z,11.10
2019-03-03T18:35:18.538Z,11.10
2019-03-03T18:37:47.013Z,11.10
2019-03-03T18:40:17.866Z,11.10
2019-03-03T18:42:46.769Z,11.20
2019-03-03T18:45:17.362Z,11.10
2019-03-03T18:47:45.947Z,9.70
2019-03-03T18:50:16.975Z,11.20
2019-03-03T18:52:45.471Z,11.10
2019-03-03T18:55:13.978Z,11.10
2019-03-03T18:57:42.475Z,11.10
2019-03-03T19:00:13.543Z,11.10
2019-03-03T19:02:42.047Z,11.10
2019-03-03T19:05:10.596Z,11.00
2019-03-03T19:07:39.110Z,11.00
2019-03-03T19:10:13.131Z,11.00
2019-03-03T19:12:41.642Z,11.00
2019-03-03T19:15:15.807Z,11.00
2019-03-03T19:17:44.301Z,11.00
2019-03-03T19:20:14.975Z,11.00
2019-03-03T19:22:43.479Z,11.10
2019-03-03T19:25:13.638Z,11.00
2019-03-03T19:27:42.304Z,11.00
2019-03-03T19:30:18.747Z,11.00
2019-03-03T19:32:50.111Z,11.00
2019-03-03T19:35:18.673Z,11.10
2019-03-03T19:37:47.186Z,11.10
2019-03-03T19:40:15.968Z,11.10
2019-03-03T19:42:44.659Z,11.10
2019-03-03T19:45:22.144Z,11.00
2019-03-03T19:47:50.842Z,11.10
2019-03-03T19:50:19.498Z,11.00
2019-03-03T19:52:48.168Z,10.90
2019-03-03T19:55:17.967Z,10.90
2019-03-03T19:57:46.474Z,10.90
2019-03-03T20:00:38.750Z,10.90
2019-03-03T20:03:06.118Z,10.90
2019-03-03T20:05:34.610Z,11.00
2019-03-03T20:08:03.359Z,10.90
2019-03-03T20:10:31.812Z,11.00
2019-03-03T20:13:00.407Z,11.00
2019-03-03T20:15:28.841Z,11.10
2019-03-03T20:17:57.334Z,11.10
2019-03-03T20:20:25.871Z,11.00
2019-03-03T20:22:54.422Z,11.00
2019-03-03T20:25:23.168Z,11.00
2019-03-03T20:27:51.746Z,11.00
2019-03-03T20:30:21.639Z,11.00
2019-03-03T20:32:50.218Z,11.00
2019-03-03T20:35:18.646Z,11.10
2019-03-03T20:37:47.248Z,11.10
2019-03-03T20:40:26.811Z,11.20
2019-03-03T20:42:55.802Z,11.10
2019-03-03T20:45:27.333Z,11.20
2019-03-03T20:47:55.825Z,11.20
2019-03-03T20:50:24.506Z,11.20
2019-03-03T20:52:53.186Z,11.20
2019-03-03T20:55:29.371Z,11.20
2019-03-03T20:57:57.887Z,11.20
2019-03-03T21:00:27.747Z,11.20
2019-03-03T21:02:57.265Z,11.20
2019-03-03T21:05:26.035Z,11.10
2019-03-03T21:07:54.719Z,11.10
2019-03-03T21:10:34.026Z,11.20
2019-03-03T21:13:02.433Z,11.30
2019-03-03T21:15:31.218Z,11.30
2019-03-03T21:17:59.724Z,11.20
2019-03-03T21:20:28.160Z,11.20
2019-03-03T21:22:56.620Z,11.30
2019-03-03T21:25:25.042Z,11.30
2019-03-03T21:27:53.468Z,11.30
2019-03-03T21:30:25.747Z,11.20
2019-03-03T21:32:54.639Z,11.10
2019-03-03T21:35:23.501Z,11.00
2019-03-03T21:37:52.361Z,11.00
2019-03-03T21:40:22.137Z,11.10
2019-03-03T21:42:50.653Z,11.10
2019-03-03T21:45:21.208Z,11.20
2019-03-03T21:47:49.727Z,11.20
2019-03-03T21:50:23.256Z,11.20
2019-03-03T21:52:51.762Z,11.20
2019-03-03T21:55:20.254Z,11.20
2019-03-03T21:57:48.755Z,11.30
2019-03-03T22:00:31.204Z,11.30
2019-03-03T22:02:59.710Z,11.30
2019-03-03T22:05:28.388Z,11.20
2019-03-03T22:07:56.809Z,11.20
2019-03-03T22:10:32.281Z,11.30
2019-03-03T22:13:09.317Z,11.30
2019-03-03T22:15:37.824Z,11.30
2019-03-03T22:18:06.304Z,11.20
2019-03-03T22:20:34.810Z,11.20
2019-03-03T22:23:03.386Z,11.20
2019-03-03T22:25:31.952Z,11.20
2019-03-03T22:28:00.460Z,11.10
2019-03-03T22:30:29.465Z,11.10
2019-03-03T22:32:57.888Z,11.10
2019-03-03T22:35:26.323Z,11.20
2019-03-03T22:37:54.740Z,11.30
2019-03-03T22:40:24.213Z,11.20
2019-03-03T22:42:52.789Z,11.20
2019-03-03T22:45:22.283Z,11.30
2019-03-03T22:47:50.862Z,11.20
2019-03-03T22:50:20.630Z,11.10
2019-03-03T22:52:49.175Z,11.10
2019-03-03T22:55:19.437Z,11.10
2019-03-03T22:57:47.937Z,11.20
2019-03-03T23:00:26.558Z,11.10
2019-03-03T23:02:54.984Z,11.10
2019-03-03T23:05:29.390Z,11.10
2019-03-03T23:08:00.903Z,11.20
2019-03-03T23:10:35.305Z,11.30
2019-03-03T23:13:21.804Z,11.30
2019-03-03T23:16:02.189Z,11.30
2019-03-03T23:18:50.214Z,11.30
2019-03-03T23:21:49.255Z,11.30
2019-03-03T23:24:55.672Z,11.30
2019-03-03T23:27:24.119Z,11.40
2019-03-03T23:29:52.547Z,11.30
2019-03-03T23:32:20.993Z,11.30
2019-03-03T23:34:49.428Z,11.20
2019-03-03T23:37:18.227Z,11.10
2019-03-03T23:39:46.663Z,11.10
2019-03-03T23:42:15.080Z,11.10
2019-03-03T23:44:43.505Z,11.10
2019-03-03T23:47:11.942Z,11.10
2019-03-03T23:49:40.377Z,11.10
2019-03-03T23:52:08.815Z,11.10
2019-03-03T23:54:37.259Z,11.20
2019-03-03T23:57:05.670Z,11.40
2019-03-03T23:59:34.122Z,11.40
